sensor_id;sensor_type;location;lat;lon;timestamp;temperature;humidity
19803;DHT22;66074;50.764;6.090;2023-10-13T00:02:02;18.50;99.90
19803;DHT22;66074;50.764;6.090;2023-10-13T00:04:31;18.50;99.90
19803;DHT22;66074;50.764;6.090;2023-10-13T00:06:57;18.50;99.90
19803;DHT22;66074;50.764;6.090;2023-10-13T00:09:23;18.50;99.90
19803;DHT22;66074;50.764;6.090;2023-10-13T00:12:00;18.50;99.90
19803;DHT22;66074;50.764;6.090;2023-10-13T00:14:26;18.50;99.90
19803;DHT22;66074;50.764;6.090;2023-10-13T00:17:06;18.50;99.90
19803;DHT22;66074;50.764;6.090;2023-10-13T00:19:41;18.50;99.90
19803;DHT22;66074;50.764;6.090;2023-10-13T00:22:17;18.50;99.90
19803;DHT22;66074;50.764;6.090;2023-10-13T00:24:45;18.50;99.90
19803;DHT22;66074;50.764;6.090;2023-10-13T00:27:15;18.60;99.90
19803;DHT22;66074;50.764;6.090;2023-10-13T00:29:59;18.60;99.90
19803;DHT22;66074;50.764;6.090;2023-10-13T00:32:45;18.60;99.90
19803;DHT22;66074;50.764;6.090;2023-10-13T00:35:16;18.60;99.90
19803;DHT22;66074;50.764;6.090;2023-10-13T00:37:52;18.60;99.90
19803;DHT22;66074;50.764;6.090;2023-10-13T00:40:22;18.60;99.90
19803;DHT22;66074;50.764;6.090;2023-10-13T00:43:12;18.60;99.90
19803;DHT22;66074;50.764;6.090;2023-10-13T00:45:54;18.60;99.90
19803;DHT22;66074;50.764;6.090;2023-10-13T00:48:41;18.60;99.90
19803;DHT22;66074;50.764;6.090;2023-10-13T00:51:09;18.60;99.90
19803;DHT22;66074;50.764;6.090;2023-10-13T00:54:00;18.60;99.90
19803;DHT22;66074;50.764;6.090;2023-10-13T00:56:28;18.60;99.90
19803;DHT22;66074;50.764;6.090;2023-10-13T00:58:56;18.60;99.90
19803;DHT22;66074;50.764;6.090;2023-10-13T01:01:23;18.60;99.90
19803;DHT22;66074;50.764;6.090;2023-10-13T01:03:59;18.60;99.90
19803;DHT22;66074;50.764;6.090;2023-10-13T01:06:28;18.60;99.90
19803;DHT22;66074;50.764;6.090;2023-10-13T01:09:02;18.60;99.90
19803;DHT22;66074;50.764;6.090;2023-10-13T01:11:46;18.60;99.90
19803;DHT22;66074;50.764;6.090;2023-10-13T01:14:14;18.60;99.90
19803;DHT22;66074;50.764;6.090;2023-10-13T01:16:44;18.70;99.90
19803;DHT22;66074;50.764;6.090;2023-10-13T01:19:11;18.60;99.90
19803;DHT22;66074;50.764;6.090;2023-10-13T01:21:38;18.60;99.90
19803;DHT22;66074;50.764;6.090;2023-10-13T01:24:06;18.60;99.90
19803;DHT22;66074;50.764;6.090;2023-10-13T01:26:34;18.70;99.90
19803;DHT22;66074;50.764;6.090;2023-10-13T01:29:07;18.70;99.90
19803;DHT22;66074;50.764;6.090;2023-10-13T01:31:43;18.60;99.90
19803;DHT22;66074;50.764;6.090;2023-10-13T01:34:17;18.70;99.90
19803;DHT22;66074;50.764;6.090;2023-10-13T01:36:54;18.70;99.90
19803;DHT22;66074;50.764;6.090;2023-10-13T01:39:22;18.70;99.90
19803;DHT22;66074;50.764;6.090;2023-10-13T01:41:55;18.70;99.90
19803;DHT22;66074;50.764;6.090;2023-10-13T01:44:21;18.70;99.90
19803;DHT22;66074;50.764;6.090;2023-10-13T01:46:47;18.70;99.90
19803;DHT22;66074;50.764;6.090;2023-10-13T01:49:13;18.70;99.90
19803;DHT22;66074;50.764;6.090;2023-10-13T01:51:41;18.70;99.90
19803;DHT22;66074;50.764;6.090;2023-10-13T01:54:08;18.70;99.90
19803;DHT22;66074;50.764;6.090;2023-10-13T01:56:37;18.60;99.90
19803;DHT22;66074;50.764;6.090;2023-10-13T01:59:08;18.70;99.90
19803;DHT22;66074;50.764;6.090;2023-10-13T02:01:37;18.70;99.90
19803;DHT22;66074;50.764;6.090;2023-10-13T02:04:04;18.70;99.90
19803;DHT22;66074;50.764;6.090;2023-10-13T02:06:31;18.70;99.90
19803;DHT22;66074;50.764;6.090;2023-10-13T02:09:09;18.70;99.90
19803;DHT22;66074;50.764;6.090;2023-10-13T02:12:01;18.70;99.90
19803;DHT22;66074;50.764;6.090;2023-10-13T02:14:26;18.70;99.90
19803;DHT22;66074;50.764;6.090;2023-10-13T02:16:52;18.70;99.90
19803;DHT22;66074;50.764;6.090;2023-10-13T02:19:37;18.80;99.90
19803;DHT22;66074;50.764;6.090;2023-10-13T02:22:05;18.80;99.90
19803;DHT22;66074;50.764;6.090;2023-10-13T02:24:34;18.80;99.90
19803;DHT22;66074;50.764;6.090;2023-10-13T02:26:59;18.70;99.90
19803;DHT22;66074;50.764;6.090;2023-10-13T02:29:35;18.80;99.90
19803;DHT22;66074;50.764;6.090;2023-10-13T02:32:05;18.80;99.90
19803;DHT22;66074;50.764;6.090;2023-10-13T02:34:38;18.80;99.90
19803;DHT22;66074;50.764;6.090;2023-10-13T02:37:09;18.70;99.90
19803;DHT22;66074;50.764;6.090;2023-10-13T02:39:36;18.80;99.90
19803;DHT22;66074;50.764;6.090;2023-10-13T02:42:02;18.70;99.90
19803;DHT22;66074;50.764;6.090;2023-10-13T02:44:32;18.70;99.90
19803;DHT22;66074;50.764;6.090;2023-10-13T02:46:59;18.70;99.90
19803;DHT22;66074;50.764;6.090;2023-10-13T02:49:28;18.70;99.90
19803;DHT22;66074;50.764;6.090;2023-10-13T02:52:02;18.70;99.90
19803;DHT22;66074;50.764;6.090;2023-10-13T02:54:32;18.80;99.90
19803;DHT22;66074;50.764;6.090;2023-10-13T02:57:05;18.70;99.90
19803;DHT22;66074;50.764;6.090;2023-10-13T02:59:32;18.70;99.90
19803;DHT22;66074;50.764;6.090;2023-10-13T03:02:12;18.70;99.90
19803;DHT22;66074;50.764;6.090;2023-10-13T03:04:53;18.80;99.90
19803;DHT22;66074;50.764;6.090;2023-10-13T03:07:25;18.80;99.90
19803;DHT22;66074;50.764;6.090;2023-10-13T03:09:54;18.80;99.90
19803;DHT22;66074;50.764;6.090;2023-10-13T03:12:23;18.80;99.90
19803;DHT22;66074;50.764;6.090;2023-10-13T03:14:50;18.80;99.90
19803;DHT22;66074;50.764;6.090;2023-10-13T03:17:36;18.80;99.90
19803;DHT22;66074;50.764;6.090;2023-10-13T03:20:02;18.80;99.90
19803;DHT22;66074;50.764;6.090;2023-10-13T03:22:31;18.80;99.90
19803;DHT22;66074;50.764;6.090;2023-10-13T03:24:57;18.80;99.90
19803;DHT22;66074;50.764;6.090;2023-10-13T03:27:31;18.80;99.90
19803;DHT22;66074;50.764;6.090;2023-10-13T03:30:20;18.80;99.90
19803;DHT22;66074;50.764;6.090;2023-10-13T03:32:55;18.90;99.90
19803;DHT22;66074;50.764;6.090;2023-10-13T03:35:22;18.90;99.90
19803;DHT22;66074;50.764;6.090;2023-10-13T03:37:54;18.80;99.90
19803;DHT22;66074;50.764;6.090;2023-10-13T03:40:21;18.90;99.90
19803;DHT22;66074;50.764;6.090;2023-10-13T03:42:54;18.90;99.90
19803;DHT22;66074;50.764;6.090;2023-10-13T03:45:33;18.90;99.90
19803;DHT22;66074;50.764;6.090;2023-10-13T03:48:26;18.90;99.90
19803;DHT22;66074;50.764;6.090;2023-10-13T03:50:52;18.90;99.90
19803;DHT22;66074;50.764;6.090;2023-10-13T03:53:37;18.90;99.90
19803;DHT22;66074;50.764;6.090;2023-10-13T03:56:21;18.90;99.90
19803;DHT22;66074;50.764;6.090;2023-10-13T03:58:55;18.90;99.90
19803;DHT22;66074;50.764;6.090;2023-10-13T04:01:26;18.90;99.90
19803;DHT22;66074;50.764;6.090;2023-10-13T04:04:02;18.90;99.90
19803;DHT22;66074;50.764;6.090;2023-10-13T04:07:06;18.90;99.90
19803;DHT22;66074;50.764;6.090;2023-10-13T04:09:31;18.90;99.90
19803;DHT22;66074;50.764;6.090;2023-10-13T04:14:33;18.90;99.90
19803;DHT22;66074;50.764;6.090;2023-10-13T04:17:18;18.90;99.90
19803;DHT22;66074;50.764;6.090;2023-10-13T04:19:54;18.90;99.90
19803;DHT22;66074;50.764;6.090;2023-10-13T04:22:39;18.90;99.90
19803;DHT22;66074;50.764;6.090;2023-10-13T04:25:24;18.90;99.90
19803;DHT22;66074;50.764;6.090;2023-10-13T04:28:09;18.90;99.90
19803;DHT22;66074;50.764;6.090;2023-10-13T04:30:48;18.90;99.90
19803;DHT22;66074;50.764;6.090;2023-10-13T04:33:30;18.90;99.90
19803;DHT22;66074;50.764;6.090;2023-10-13T04:39:05;18.90;99.90
19803;DHT22;66074;50.764;6.090;2023-10-13T04:41:35;18.90;99.90
19803;DHT22;66074;50.764;6.090;2023-10-13T04:44:11;18.90;99.90
19803;DHT22;66074;50.764;6.090;2023-10-13T04:46:56;18.90;99.90
19803;DHT22;66074;50.764;6.090;2023-10-13T04:49:25;18.90;99.90
19803;DHT22;66074;50.764;6.090;2023-10-13T04:52:01;19.00;99.90
19803;DHT22;66074;50.764;6.090;2023-10-13T04:54:37;19.00;99.90
19803;DHT22;66074;50.764;6.090;2023-10-13T04:57:22;19.00;99.90
19803;DHT22;66074;50.764;6.090;2023-10-13T04:59:51;19.00;99.90
19803;DHT22;66074;50.764;6.090;2023-10-13T05:02:36;19.00;99.90
19803;DHT22;66074;50.764;6.090;2023-10-13T05:07:35;19.10;99.90
19803;DHT22;66074;50.764;6.090;2023-10-13T05:10:19;19.10;99.90
19803;DHT22;66074;50.764;6.090;2023-10-13T05:13:03;19.10;99.90
19803;DHT22;66074;50.764;6.090;2023-10-13T05:15:49;19.10;99.90
19803;DHT22;66074;50.764;6.090;2023-10-13T05:18:34;19.20;99.90
19803;DHT22;66074;50.764;6.090;2023-10-13T05:21:18;19.20;99.90
19803;DHT22;66074;50.764;6.090;2023-10-13T05:24:03;19.20;99.90
19803;DHT22;66074;50.764;6.090;2023-10-13T05:26:47;19.20;99.90
19803;DHT22;66074;50.764;6.090;2023-10-13T05:29:31;19.20;99.90
19803;DHT22;66074;50.764;6.090;2023-10-13T05:32:15;19.20;99.90
19803;DHT22;66074;50.764;6.090;2023-10-13T05:34:59;19.20;99.90
19803;DHT22;66074;50.764;6.090;2023-10-13T05:37:43;19.20;99.90
19803;DHT22;66074;50.764;6.090;2023-10-13T05:40:28;19.20;99.90
19803;DHT22;66074;50.764;6.090;2023-10-13T05:43:12;19.20;99.90
19803;DHT22;66074;50.764;6.090;2023-10-13T05:46:01;19.30;99.90
19803;DHT22;66074;50.764;6.090;2023-10-13T05:49:02;19.20;99.90
19803;DHT22;66074;50.764;6.090;2023-10-13T05:51:31;19.30;99.90
19803;DHT22;66074;50.764;6.090;2023-10-13T05:54:03;19.30;99.90
19803;DHT22;66074;50.764;6.090;2023-10-13T05:56:50;19.30;99.90
19803;DHT22;66074;50.764;6.090;2023-10-13T05:59:36;19.30;99.90
19803;DHT22;66074;50.764;6.090;2023-10-13T06:02:21;19.30;99.90
19803;DHT22;66074;50.764;6.090;2023-10-13T06:05:08;19.30;99.90
19803;DHT22;66074;50.764;6.090;2023-10-13T06:07:53;19.30;99.90
19803;DHT22;66074;50.764;6.090;2023-10-13T06:10:37;19.30;99.90
19803;DHT22;66074;50.764;6.090;2023-10-13T06:13:22;19.30;99.90
19803;DHT22;66074;50.764;6.090;2023-10-13T06:16:07;19.30;99.90
19803;DHT22;66074;50.764;6.090;2023-10-13T06:18:51;19.30;99.90
19803;DHT22;66074;50.764;6.090;2023-10-13T06:21:35;19.30;99.90
19803;DHT22;66074;50.764;6.090;2023-10-13T06:24:19;19.40;99.90
19803;DHT22;66074;50.764;6.090;2023-10-13T06:27:04;19.40;99.90
19803;DHT22;66074;50.764;6.090;2023-10-13T06:29:48;19.40;99.90
19803;DHT22;66074;50.764;6.090;2023-10-13T06:32:14;19.40;99.90
19803;DHT22;66074;50.764;6.090;2023-10-13T06:34:42;19.50;99.90
19803;DHT22;66074;50.764;6.090;2023-10-13T06:37:14;19.60;99.90
19803;DHT22;66074;50.764;6.090;2023-10-13T06:40:01;19.60;99.90
19803;DHT22;66074;50.764;6.090;2023-10-13T06:42:44;19.60;99.90
19803;DHT22;66074;50.764;6.090;2023-10-13T06:45:10;19.60;99.90
19803;DHT22;66074;50.764;6.090;2023-10-13T06:47:37;19.60;99.90
19803;DHT22;66074;50.764;6.090;2023-10-13T06:50:12;19.70;99.90
19803;DHT22;66074;50.764;6.090;2023-10-13T06:52:44;19.70;99.90
19803;DHT22;66074;50.764;6.090;2023-10-13T06:55:10;19.70;99.90
19803;DHT22;66074;50.764;6.090;2023-10-13T06:58:00;19.70;99.90
19803;DHT22;66074;50.764;6.090;2023-10-13T07:00:29;19.60;99.90
19803;DHT22;66074;50.764;6.090;2023-10-13T07:02:59;19.60;99.90
19803;DHT22;66074;50.764;6.090;2023-10-13T07:05:40;19.60;99.90
19803;DHT22;66074;50.764;6.090;2023-10-13T07:08:10;19.60;99.90
19803;DHT22;66074;50.764;6.090;2023-10-13T07:10:48;19.70;99.90
19803;DHT22;66074;50.764;6.090;2023-10-13T07:13:39;19.70;99.90
19803;DHT22;66074;50.764;6.090;2023-10-13T07:16:05;19.70;99.90
19803;DHT22;66074;50.764;6.090;2023-10-13T07:18:33;19.70;99.90
19803;DHT22;66074;50.764;6.090;2023-10-13T07:21:08;19.70;99.90
19803;DHT22;66074;50.764;6.090;2023-10-13T07:23:38;19.70;99.90
19803;DHT22;66074;50.764;6.090;2023-10-13T07:26:05;19.70;99.90
19803;DHT22;66074;50.764;6.090;2023-10-13T07:28:33;19.70;99.90
19803;DHT22;66074;50.764;6.090;2023-10-13T07:31:04;19.80;99.90
19803;DHT22;66074;50.764;6.090;2023-10-13T07:33:30;19.80;99.90
19803;DHT22;66074;50.764;6.090;2023-10-13T07:36:07;19.80;99.90
19803;DHT22;66074;50.764;6.090;2023-10-13T07:38:46;19.80;99.90
19803;DHT22;66074;50.764;6.090;2023-10-13T07:41:17;19.80;99.90
19803;DHT22;66074;50.764;6.090;2023-10-13T07:43:43;19.80;99.90
19803;DHT22;66074;50.764;6.090;2023-10-13T07:46:10;19.80;99.90
19803;DHT22;66074;50.764;6.090;2023-10-13T07:48:37;19.90;99.90
19803;DHT22;66074;50.764;6.090;2023-10-13T07:51:05;19.90;99.90
19803;DHT22;66074;50.764;6.090;2023-10-13T07:53:36;19.90;99.90
19803;DHT22;66074;50.764;6.090;2023-10-13T07:56:11;19.90;99.90
19803;DHT22;66074;50.764;6.090;2023-10-13T07:58:38;19.90;99.90
19803;DHT22;66074;50.764;6.090;2023-10-13T08:01:25;20.00;99.90
19803;DHT22;66074;50.764;6.090;2023-10-13T08:03:52;20.10;99.90
19803;DHT22;66074;50.764;6.090;2023-10-13T08:06:44;20.00;99.90
19803;DHT22;66074;50.764;6.090;2023-10-13T08:09:10;20.10;99.90
19803;DHT22;66074;50.764;6.090;2023-10-13T08:11:55;20.10;99.90
19803;DHT22;66074;50.764;6.090;2023-10-13T08:14:21;20.10;99.90
19803;DHT22;66074;50.764;6.090;2023-10-13T08:16:54;20.20;99.90
19803;DHT22;66074;50.764;6.090;2023-10-13T08:19:26;20.20;99.90
19803;DHT22;66074;50.764;6.090;2023-10-13T08:22:05;20.30;99.90
19803;DHT22;66074;50.764;6.090;2023-10-13T08:24:47;20.20;99.90
19803;DHT22;66074;50.764;6.090;2023-10-13T08:27:14;20.20;99.90
19803;DHT22;66074;50.764;6.090;2023-10-13T08:32:25;20.20;99.90
19803;DHT22;66074;50.764;6.090;2023-10-13T08:34:58;20.30;99.90
19803;DHT22;66074;50.764;6.090;2023-10-13T08:37:26;20.30;99.90
19803;DHT22;66074;50.764;6.090;2023-10-13T08:39:56;20.40;99.90
19803;DHT22;66074;50.764;6.090;2023-10-13T08:42:29;20.40;99.90
19803;DHT22;66074;50.764;6.090;2023-10-13T08:45:09;20.50;99.90
19803;DHT22;66074;50.764;6.090;2023-10-13T08:47:54;20.50;99.90
19803;DHT22;66074;50.764;6.090;2023-10-13T08:56:03;20.50;99.90
19803;DHT22;66074;50.764;6.090;2023-10-13T08:58:49;20.50;99.90
19803;DHT22;66074;50.764;6.090;2023-10-13T09:01:29;20.50;99.90
19803;DHT22;66074;50.764;6.090;2023-10-13T09:04:15;20.50;99.90
19803;DHT22;66074;50.764;6.090;2023-10-13T09:06:45;20.60;99.90
19803;DHT22;66074;50.764;6.090;2023-10-13T09:09:29;20.60;99.90
19803;DHT22;66074;50.764;6.090;2023-10-13T09:12:13;20.60;99.70
19803;DHT22;66074;50.764;6.090;2023-10-13T09:14:41;20.70;99.90
19803;DHT22;66074;50.764;6.090;2023-10-13T09:17:13;20.70;99.20
19803;DHT22;66074;50.764;6.090;2023-10-13T09:19:46;20.70;99.80
19803;DHT22;66074;50.764;6.090;2023-10-13T09:22:23;20.70;99.90
19803;DHT22;66074;50.764;6.090;2023-10-13T09:24:58;20.70;99.80
19803;DHT22;66074;50.764;6.090;2023-10-13T09:27:29;20.80;99.50
19803;DHT22;66074;50.764;6.090;2023-10-13T09:30:02;20.80;99.60
19803;DHT22;66074;50.764;6.090;2023-10-13T09:32:47;20.80;99.50
19803;DHT22;66074;50.764;6.090;2023-10-13T09:35:19;20.90;99.50
19803;DHT22;66074;50.764;6.090;2023-10-13T09:37:49;20.90;99.20
19803;DHT22;66074;50.764;6.090;2023-10-13T09:40:16;21.00;98.90
19803;DHT22;66074;50.764;6.090;2023-10-13T09:42:57;21.10;98.90
19803;DHT22;66074;50.764;6.090;2023-10-13T09:45:30;21.20;98.80
19803;DHT22;66074;50.764;6.090;2023-10-13T09:48:02;21.30;99.60
19803;DHT22;66074;50.764;6.090;2023-10-13T09:50:37;21.30;98.90
19803;DHT22;66074;50.764;6.090;2023-10-13T09:53:04;21.30;99.10
19803;DHT22;66074;50.764;6.090;2023-10-13T09:55:38;21.30;99.30
19803;DHT22;66074;50.764;6.090;2023-10-13T09:58:10;21.20;98.50
19803;DHT22;66074;50.764;6.090;2023-10-13T10:00:59;21.20;98.80
19803;DHT22;66074;50.764;6.090;2023-10-13T10:03:44;21.30;98.80
19803;DHT22;66074;50.764;6.090;2023-10-13T10:06:22;21.30;98.60
19803;DHT22;66074;50.764;6.090;2023-10-13T10:09:04;21.30;98.50
19803;DHT22;66074;50.764;6.090;2023-10-13T10:17:06;21.50;98.50
19803;DHT22;66074;50.764;6.090;2023-10-13T10:22:12;21.70;97.50
19803;DHT22;66074;50.764;6.090;2023-10-13T10:24:59;21.70;97.70
19803;DHT22;66074;50.764;6.090;2023-10-13T10:27:32;21.80;97.80
19803;DHT22;66074;50.764;6.090;2023-10-13T10:29:58;21.90;97.70
19803;DHT22;66074;50.764;6.090;2023-10-13T10:32:37;21.90;97.30
19803;DHT22;66074;50.764;6.090;2023-10-13T10:35:09;22.00;97.10
19803;DHT22;66074;50.764;6.090;2023-10-13T10:37:46;22.00;96.80
19803;DHT22;66074;50.764;6.090;2023-10-13T10:40:15;22.10;97.40
19803;DHT22;66074;50.764;6.090;2023-10-13T10:42:59;22.10;96.60
19803;DHT22;66074;50.764;6.090;2023-10-13T10:45:36;22.10;97.10
19803;DHT22;66074;50.764;6.090;2023-10-13T10:48:02;22.10;97.00
19803;DHT22;66074;50.764;6.090;2023-10-13T10:50:54;22.00;96.70
19803;DHT22;66074;50.764;6.090;2023-10-13T10:53:21;22.10;97.10
19803;DHT22;66074;50.764;6.090;2023-10-13T10:56:09;22.10;96.60
19803;DHT22;66074;50.764;6.090;2023-10-13T10:58:46;22.20;95.80
19803;DHT22;66074;50.764;6.090;2023-10-13T11:01:12;22.30;96.10
19803;DHT22;66074;50.764;6.090;2023-10-13T11:03:55;22.40;95.80
19803;DHT22;66074;50.764;6.090;2023-10-13T11:06:24;22.50;95.20
19803;DHT22;66074;50.764;6.090;2023-10-13T11:09:04;22.60;96.00
19803;DHT22;66074;50.764;6.090;2023-10-13T11:11:32;22.60;95.30
19803;DHT22;66074;50.764;6.090;2023-10-13T11:14:01;22.60;95.60
19803;DHT22;66074;50.764;6.090;2023-10-13T11:16:46;22.60;95.40
19803;DHT22;66074;50.764;6.090;2023-10-13T11:22:16;22.50;94.90
19803;DHT22;66074;50.764;6.090;2023-10-13T11:25:02;22.50;95.60
19803;DHT22;66074;50.764;6.090;2023-10-13T11:27:38;22.50;95.20
19803;DHT22;66074;50.764;6.090;2023-10-13T11:30:17;22.50;94.90
19803;DHT22;66074;50.764;6.090;2023-10-13T11:33:01;22.50;95.10
19803;DHT22;66074;50.764;6.090;2023-10-13T11:35:34;22.50;95.00
19803;DHT22;66074;50.764;6.090;2023-10-13T11:38:30;22.40;94.80
19803;DHT22;66074;50.764;6.090;2023-10-13T11:41:19;22.40;94.30
19803;DHT22;66074;50.764;6.090;2023-10-13T11:43:47;22.50;94.40
19803;DHT22;66074;50.764;6.090;2023-10-13T11:46:16;22.60;94.30
19803;DHT22;66074;50.764;6.090;2023-10-13T11:49:03;22.60;94.70
19803;DHT22;66074;50.764;6.090;2023-10-13T11:51:42;22.60;94.10
19803;DHT22;66074;50.764;6.090;2023-10-13T11:56:41;22.50;93.90
19803;DHT22;66074;50.764;6.090;2023-10-13T11:59:07;22.50;93.60
19803;DHT22;66074;50.764;6.090;2023-10-13T12:01:42;22.60;93.70
19803;DHT22;66074;50.764;6.090;2023-10-13T12:04:26;22.60;93.00
19803;DHT22;66074;50.764;6.090;2023-10-13T12:07:05;22.70;93.00
19803;DHT22;66074;50.764;6.090;2023-10-13T12:09:43;22.80;92.90
19803;DHT22;66074;50.764;6.090;2023-10-13T12:12:27;22.80;93.20
19803;DHT22;66074;50.764;6.090;2023-10-13T12:14:54;22.90;92.90
19803;DHT22;66074;50.764;6.090;2023-10-13T12:17:24;22.90;93.10
19803;DHT22;66074;50.764;6.090;2023-10-13T12:19:53;22.90;92.80
19803;DHT22;66074;50.764;6.090;2023-10-13T12:22:19;22.90;92.60
19803;DHT22;66074;50.764;6.090;2023-10-13T12:25:03;22.80;92.30
19803;DHT22;66074;50.764;6.090;2023-10-13T12:27:54;22.80;92.10
19803;DHT22;66074;50.764;6.090;2023-10-13T12:30:26;22.80;92.20
19803;DHT22;66074;50.764;6.090;2023-10-13T12:33:10;22.80;92.80
19803;DHT22;66074;50.764;6.090;2023-10-13T12:35:39;22.80;92.80
19803;DHT22;66074;50.764;6.090;2023-10-13T12:38:24;22.90;92.80
19803;DHT22;66074;50.764;6.090;2023-10-13T12:41:20;22.80;92.40
19803;DHT22;66074;50.764;6.090;2023-10-13T12:44:05;22.90;92.70
19803;DHT22;66074;50.764;6.090;2023-10-13T12:46:50;23.00;92.70
19803;DHT22;66074;50.764;6.090;2023-10-13T12:49:35;23.00;92.40
19803;DHT22;66074;50.764;6.090;2023-10-13T12:52:07;23.00;92.30
19803;DHT22;66074;50.764;6.090;2023-10-13T12:54:45;22.90;92.50
19803;DHT22;66074;50.764;6.090;2023-10-13T12:57:14;22.80;92.50
19803;DHT22;66074;50.764;6.090;2023-10-13T12:59:40;22.80;92.60
19803;DHT22;66074;50.764;6.090;2023-10-13T13:02:06;22.80;92.40
19803;DHT22;66074;50.764;6.090;2023-10-13T13:04:32;22.70;92.50
19803;DHT22;66074;50.764;6.090;2023-10-13T13:07:02;22.80;92.90
19803;DHT22;66074;50.764;6.090;2023-10-13T13:09:30;22.80;92.70
19803;DHT22;66074;50.764;6.090;2023-10-13T13:11:56;22.80;92.10
19803;DHT22;66074;50.764;6.090;2023-10-13T13:14:25;22.80;92.10
19803;DHT22;66074;50.764;6.090;2023-10-13T13:17:02;22.80;91.80
19803;DHT22;66074;50.764;6.090;2023-10-13T13:19:34;22.80;91.90
19803;DHT22;66074;50.764;6.090;2023-10-13T13:22:05;22.80;92.00
19803;DHT22;66074;50.764;6.090;2023-10-13T13:24:34;22.80;92.10
19803;DHT22;66074;50.764;6.090;2023-10-13T13:27:00;22.80;92.00
19803;DHT22;66074;50.764;6.090;2023-10-13T13:29:29;22.80;92.00
19803;DHT22;66074;50.764;6.090;2023-10-13T13:31:56;22.80;92.10
19803;DHT22;66074;50.764;6.090;2023-10-13T13:34:22;22.70;92.10
19803;DHT22;66074;50.764;6.090;2023-10-13T13:36:47;22.70;92.30
19803;DHT22;66074;50.764;6.090;2023-10-13T13:39:19;22.70;92.20
19803;DHT22;66074;50.764;6.090;2023-10-13T13:41:54;22.70;92.10
19803;DHT22;66074;50.764;6.090;2023-10-13T13:44:25;22.70;92.20
19803;DHT22;66074;50.764;6.090;2023-10-13T13:47:01;22.60;91.90
19803;DHT22;66074;50.764;6.090;2023-10-13T13:49:40;22.60;92.20
19803;DHT22;66074;50.764;6.090;2023-10-13T13:52:09;22.60;92.10
19803;DHT22;66074;50.764;6.090;2023-10-13T13:54:35;22.60;92.00
19803;DHT22;66074;50.764;6.090;2023-10-13T13:57:01;22.60;92.00
19803;DHT22;66074;50.764;6.090;2023-10-13T13:59:26;22.60;92.00
19803;DHT22;66074;50.764;6.090;2023-10-13T14:01:59;22.60;92.00
19803;DHT22;66074;50.764;6.090;2023-10-13T14:04:25;22.50;91.70
19803;DHT22;66074;50.764;6.090;2023-10-13T14:06:51;22.50;91.90
19803;DHT22;66074;50.764;6.090;2023-10-13T14:09:16;22.50;91.80
19803;DHT22;66074;50.764;6.090;2023-10-13T14:12:00;22.50;91.50
19803;DHT22;66074;50.764;6.090;2023-10-13T14:14:44;22.50;91.60
19803;DHT22;66074;50.764;6.090;2023-10-13T14:17:23;22.50;91.40
19803;DHT22;66074;50.764;6.090;2023-10-13T14:19:55;22.50;91.80
19803;DHT22;66074;50.764;6.090;2023-10-13T14:22:21;22.40;91.70
19803;DHT22;66074;50.764;6.090;2023-10-13T14:24:51;22.40;91.70
19803;DHT22;66074;50.764;6.090;2023-10-13T14:27:21;22.30;91.50
19803;DHT22;66074;50.764;6.090;2023-10-13T14:29:51;22.30;91.40
19803;DHT22;66074;50.764;6.090;2023-10-13T14:32:21;22.30;91.50
19803;DHT22;66074;50.764;6.090;2023-10-13T14:34:50;22.30;91.40
19803;DHT22;66074;50.764;6.090;2023-10-13T14:37:23;22.30;91.00
19803;DHT22;66074;50.764;6.090;2023-10-13T14:39:58;22.20;91.30
19803;DHT22;66074;50.764;6.090;2023-10-13T14:42:26;22.20;91.30
19803;DHT22;66074;50.764;6.090;2023-10-13T14:44:52;22.20;91.40
19803;DHT22;66074;50.764;6.090;2023-10-13T14:47:24;22.10;91.40
19803;DHT22;66074;50.764;6.090;2023-10-13T14:49:52;22.10;91.30
19803;DHT22;66074;50.764;6.090;2023-10-13T14:52:20;22.10;91.30
19803;DHT22;66074;50.764;6.090;2023-10-13T14:54:46;22.10;91.20
19803;DHT22;66074;50.764;6.090;2023-10-13T14:57:13;22.10;91.20
19803;DHT22;66074;50.764;6.090;2023-10-13T14:59:39;22.10;91.30
19803;DHT22;66074;50.764;6.090;2023-10-13T15:02:04;22.10;91.30
19803;DHT22;66074;50.764;6.090;2023-10-13T15:04:30;22.10;91.20
19803;DHT22;66074;50.764;6.090;2023-10-13T15:07:00;22.20;91.30
19803;DHT22;66074;50.764;6.090;2023-10-13T15:09:29;22.20;91.40
19803;DHT22;66074;50.764;6.090;2023-10-13T15:11:55;22.20;90.90
19803;DHT22;66074;50.764;6.090;2023-10-13T15:14:20;22.20;91.10
19803;DHT22;66074;50.764;6.090;2023-10-13T15:16:48;22.10;91.10
19803;DHT22;66074;50.764;6.090;2023-10-13T15:19:14;22.10;90.90
19803;DHT22;66074;50.764;6.090;2023-10-13T15:21:42;22.10;91.10
19803;DHT22;66074;50.764;6.090;2023-10-13T15:24:09;22.10;91.00
19803;DHT22;66074;50.764;6.090;2023-10-13T15:26:45;22.00;90.90
19803;DHT22;66074;50.764;6.090;2023-10-13T15:29:15;22.00;91.10
19803;DHT22;66074;50.764;6.090;2023-10-13T15:31:45;22.00;91.10
19803;DHT22;66074;50.764;6.090;2023-10-13T15:34:30;21.90;91.00
19803;DHT22;66074;50.764;6.090;2023-10-13T15:36:57;21.90;91.10
19803;DHT22;66074;50.764;6.090;2023-10-13T15:39:24;21.90;91.20
19803;DHT22;66074;50.764;6.090;2023-10-13T15:41:50;21.90;91.20
19803;DHT22;66074;50.764;6.090;2023-10-13T15:44:20;21.90;91.20
19803;DHT22;66074;50.764;6.090;2023-10-13T15:46:53;22.00;91.30
19803;DHT22;66074;50.764;6.090;2023-10-13T15:49:19;22.00;91.10
19803;DHT22;66074;50.764;6.090;2023-10-13T15:51:44;22.00;91.20
19803;DHT22;66074;50.764;6.090;2023-10-13T15:54:10;22.00;91.20
19803;DHT22;66074;50.764;6.090;2023-10-13T15:56:44;21.90;91.50
19803;DHT22;66074;50.764;6.090;2023-10-13T15:59:10;21.90;91.60
19803;DHT22;66074;50.764;6.090;2023-10-13T16:01:36;21.80;91.50
19803;DHT22;66074;50.764;6.090;2023-10-13T16:04:04;21.80;91.50
19803;DHT22;66074;50.764;6.090;2023-10-13T16:06:39;21.80;91.60
19803;DHT22;66074;50.764;6.090;2023-10-13T16:09:05;21.70;91.50
19803;DHT22;66074;50.764;6.090;2023-10-13T16:11:42;21.70;91.60
19803;DHT22;66074;50.764;6.090;2023-10-13T16:14:09;21.70;91.60
19803;DHT22;66074;50.764;6.090;2023-10-13T16:16:41;21.70;91.80
19803;DHT22;66074;50.764;6.090;2023-10-13T16:19:10;21.70;91.70
19803;DHT22;66074;50.764;6.090;2023-10-13T16:21:36;21.60;91.60
19803;DHT22;66074;50.764;6.090;2023-10-13T16:24:05;21.60;91.70
19803;DHT22;66074;50.764;6.090;2023-10-13T16:26:37;21.60;91.70
19803;DHT22;66074;50.764;6.090;2023-10-13T16:29:06;21.50;91.70
19803;DHT22;66074;50.764;6.090;2023-10-13T16:31:32;21.60;91.70
19803;DHT22;66074;50.764;6.090;2023-10-13T16:33:58;21.60;91.80
19803;DHT22;66074;50.764;6.090;2023-10-13T16:36:28;21.60;91.70
19803;DHT22;66074;50.764;6.090;2023-10-13T16:38:53;21.60;91.80
19803;DHT22;66074;50.764;6.090;2023-10-13T16:41:26;21.60;91.80
19803;DHT22;66074;50.764;6.090;2023-10-13T16:43:52;21.60;91.90